sensor_id;sensor_type;location;lat;lon;timestamp;P1;durP1;ratioP1;P2;durP2;ratioP2
70078;SDS011;57451;52.496;13.456;2023-06-22T00:01:25;14.35;;;10.10;;
70078;SDS011;57451;52.496;13.456;2023-06-22T00:03:53;11.98;;;10.30;;
70078;SDS011;57451;52.496;13.456;2023-06-22T00:06:24;14.33;;;9.93;;
70078;SDS011;57451;52.496;13.456;2023-06-22T00:08:53;14.45;;;10.20;;
70078;SDS011;57451;52.496;13.456;2023-06-22T00:11:23;13.77;;;10.10;;
70078;SDS011;57451;52.496;13.456;2023-06-22T00:13:51;12.82;;;9.73;;
70078;SDS011;57451;52.496;13.456;2023-06-22T00:16:20;13.10;;;9.77;;
70078;SDS011;57451;52.496;13.456;2023-06-22T00:18:48;12.93;;;10.00;;
70078;SDS011;57451;52.496;13.456;2023-06-22T00:21:16;11.68;;;9.70;;
70078;SDS011;57451;52.496;13.456;2023-06-22T00:23:49;12.77;;;9.48;;
70078;SDS011;57451;52.496;13.456;2023-06-22T00:26:19;12.88;;;9.93;;
70078;SDS011;57451;52.496;13.456;2023-06-22T00:28:49;12.20;;;9.60;;
70078;SDS011;57451;52.496;13.456;2023-06-22T00:31:17;12.80;;;9.80;;
70078;SDS011;57451;52.496;13.456;2023-06-22T00:33:53;14.23;;;10.18;;
70078;SDS011;57451;52.496;13.456;2023-06-22T00:36:23;15.02;;;9.75;;
70078;SDS011;57451;52.496;13.456;2023-06-22T00:38:52;13.10;;;9.75;;
70078;SDS011;57451;52.496;13.456;2023-06-22T00:41:22;14.10;;;10.10;;
70078;SDS011;57451;52.496;13.456;2023-06-22T00:43:51;13.90;;;10.43;;
70078;SDS011;57451;52.496;13.456;2023-06-22T00:46:21;12.45;;;9.68;;
70078;SDS011;57451;52.496;13.456;2023-06-22T00:48:50;13.70;;;10.77;;
70078;SDS011;57451;52.496;13.456;2023-06-22T00:51:20;13.70;;;10.30;;
70078;SDS011;57451;52.496;13.456;2023-06-22T00:53:51;13.02;;;10.05;;
70078;SDS011;57451;52.496;13.456;2023-06-22T00:56:20;13.30;;;10.37;;
70078;SDS011;57451;52.496;13.456;2023-06-22T00:58:52;12.15;;;9.73;;
70078;SDS011;57451;52.496;13.456;2023-06-22T01:01:21;13.18;;;10.25;;
70078;SDS011;57451;52.496;13.456;2023-06-22T01:03:51;13.18;;;10.07;;
70078;SDS011;57451;52.496;13.456;2023-06-22T01:06:21;13.35;;;9.77;;
70078;SDS011;57451;52.496;13.456;2023-06-22T01:09:06;13.73;;;10.37;;
70078;SDS011;57451;52.496;13.456;2023-06-22T01:11:45;14.65;;;9.80;;
70078;SDS011;57451;52.496;13.456;2023-06-22T01:14:19;15.32;;;10.45;;
70078;SDS011;57451;52.496;13.456;2023-06-22T01:16:56;13.93;;;10.32;;
70078;SDS011;57451;52.496;13.456;2023-06-22T01:19:35;14.70;;;10.05;;
70078;SDS011;57451;52.496;13.456;2023-06-22T01:22:09;14.47;;;10.10;;
70078;SDS011;57451;52.496;13.456;2023-06-22T01:24:45;14.95;;;10.98;;
70078;SDS011;57451;52.496;13.456;2023-06-22T01:27:26;15.70;;;10.63;;
70078;SDS011;57451;52.496;13.456;2023-06-22T01:30:03;14.80;;;10.55;;
70078;SDS011;57451;52.496;13.456;2023-06-22T01:32:35;14.90;;;11.00;;
70078;SDS011;57451;52.496;13.456;2023-06-22T01:35:06;14.20;;;11.30;;
70078;SDS011;57451;52.496;13.456;2023-06-22T01:37:36;17.13;;;11.40;;
70078;SDS011;57451;52.496;13.456;2023-06-22T01:40:08;13.38;;;10.73;;
70078;SDS011;57451;52.496;13.456;2023-06-22T01:42:36;14.50;;;11.60;;
70078;SDS011;57451;52.496;13.456;2023-06-22T01:45:08;15.52;;;11.43;;
70078;SDS011;57451;52.496;13.456;2023-06-22T01:47:38;15.47;;;11.57;;
70078;SDS011;57451;52.496;13.456;2023-06-22T01:50:09;16.63;;;12.35;;
70078;SDS011;57451;52.496;13.456;2023-06-22T01:52:39;16.33;;;12.27;;
70078;SDS011;57451;52.496;13.456;2023-06-22T01:55:07;15.32;;;11.35;;
70078;SDS011;57451;52.496;13.456;2023-06-22T01:57:35;17.00;;;12.18;;
70078;SDS011;57451;52.496;13.456;2023-06-22T02:00:06;17.40;;;12.00;;
70078;SDS011;57451;52.496;13.456;2023-06-22T02:02:43;15.13;;;11.65;;
70078;SDS011;57451;52.496;13.456;2023-06-22T02:05:21;16.80;;;12.65;;
70078;SDS011;57451;52.496;13.456;2023-06-22T02:07:56;16.45;;;12.75;;
70078;SDS011;57451;52.496;13.456;2023-06-22T02:10:32;16.48;;;13.00;;
70078;SDS011;57451;52.496;13.456;2023-06-22T02:13:01;18.03;;;13.40;;
70078;SDS011;57451;52.496;13.456;2023-06-22T02:15:34;16.52;;;12.75;;
70078;SDS011;57451;52.496;13.456;2023-06-22T02:18:03;14.82;;;12.43;;
70078;SDS011;57451;52.496;13.456;2023-06-22T02:20:32;18.38;;;11.75;;
70078;SDS011;57451;52.496;13.456;2023-06-22T02:23:03;17.27;;;12.73;;
70078;SDS011;57451;52.496;13.456;2023-06-22T02:25:35;17.20;;;13.50;;
70078;SDS011;57451;52.496;13.456;2023-06-22T02:28:03;17.85;;;13.73;;
70078;SDS011;57451;52.496;13.456;2023-06-22T02:30:31;16.77;;;13.07;;
70078;SDS011;57451;52.496;13.456;2023-06-22T02:33:01;18.23;;;13.43;;
70078;SDS011;57451;52.496;13.456;2023-06-22T02:35:29;18.10;;;13.25;;
70078;SDS011;57451;52.496;13.456;2023-06-22T02:38:03;18.13;;;13.93;;
70078;SDS011;57451;52.496;13.456;2023-06-22T02:40:31;16.15;;;12.77;;
70078;SDS011;57451;52.496;13.456;2023-06-22T02:42:59;17.33;;;12.93;;
70078;SDS011;57451;52.496;13.456;2023-06-22T02:45:34;16.10;;;12.88;;
70078;SDS011;57451;52.496;13.456;2023-06-22T02:48:04;18.75;;;14.10;;
70078;SDS011;57451;52.496;13.456;2023-06-22T02:50:33;18.03;;;13.30;;
70078;SDS011;57451;52.496;13.456;2023-06-22T02:53:05;18.92;;;13.25;;
70078;SDS011;57451;52.496;13.456;2023-06-22T02:55:36;15.60;;;12.57;;
70078;SDS011;57451;52.496;13.456;2023-06-22T02:58:08;18.45;;;13.70;;
70078;SDS011;57451;52.496;13.456;2023-06-22T03:00:37;16.90;;;13.43;;
70078;SDS011;57451;52.496;13.456;2023-06-22T03:03:12;18.73;;;13.50;;
70078;SDS011;57451;52.496;13.456;2023-06-22T03:05:40;17.40;;;12.90;;
70078;SDS011;57451;52.496;13.456;2023-06-22T03:08:09;15.95;;;12.95;;
70078;SDS011;57451;52.496;13.456;2023-06-22T03:10:40;16.85;;;13.35;;
70078;SDS011;57451;52.496;13.456;2023-06-22T03:13:08;16.20;;;12.25;;
70078;SDS011;57451;52.496;13.456;2023-06-22T03:15:38;15.93;;;12.43;;
70078;SDS011;57451;52.496;13.456;2023-06-22T03:18:06;15.75;;;11.90;;
70078;SDS011;57451;52.496;13.456;2023-06-22T03:24:01;15.48;;;11.60;;
70078;SDS011;57451;52.496;13.456;2023-06-22T03:26:30;14.00;;;11.05;;
70078;SDS011;57451;52.496;13.456;2023-06-22T03:28:58;14.90;;;11.27;;
70078;SDS011;57451;52.496;13.456;2023-06-22T03:31:29;14.93;;;10.25;;
70078;SDS011;57451;52.496;13.456;2023-06-22T03:33:58;15.23;;;10.80;;
70078;SDS011;57451;52.496;13.456;2023-06-22T03:36:27;13.88;;;10.00;;
70078;SDS011;57451;52.496;13.456;2023-06-22T03:38:55;12.70;;;9.43;;
70078;SDS011;57451;52.496;13.456;2023-06-22T03:41:24;11.97;;;9.17;;
70078;SDS011;57451;52.496;13.456;2023-06-22T03:43:52;14.75;;;9.30;;
70078;SDS011;57451;52.496;13.456;2023-06-22T03:46:23;12.00;;;9.45;;
70078;SDS011;57451;52.496;13.456;2023-06-22T03:48:51;13.13;;;9.02;;
70078;SDS011;57451;52.496;13.456;2023-06-22T03:51:19;11.90;;;8.75;;
70078;SDS011;57451;52.496;13.456;2023-06-22T03:53:47;10.87;;;8.00;;
70078;SDS011;57451;52.496;13.456;2023-06-22T03:56:15;13.65;;;8.30;;
70078;SDS011;57451;52.496;13.456;2023-06-22T03:58:51;12.70;;;8.77;;
70078;SDS011;57451;52.496;13.456;2023-06-22T04:01:19;11.93;;;7.93;;
70078;SDS011;57451;52.496;13.456;2023-06-22T04:03:48;11.00;;;7.53;;
70078;SDS011;57451;52.496;13.456;2023-06-22T04:06:16;11.30;;;7.80;;
70078;SDS011;57451;52.496;13.456;2023-06-22T04:08:45;11.15;;;8.25;;
70078;SDS011;57451;52.496;13.456;2023-06-22T04:11:18;11.10;;;8.13;;
70078;SDS011;57451;52.496;13.456;2023-06-22T06:03:20;10.90;;;5.93;;
70078;SDS011;57451;52.496;13.456;2023-06-22T06:05:48;9.63;;;6.85;;
70078;SDS011;57451;52.496;13.456;2023-06-22T06:08:15;10.13;;;6.78;;
70078;SDS011;57451;52.496;13.456;2023-06-22T06:10:43;11.33;;;6.77;;
70078;SDS011;57451;52.496;13.456;2023-06-22T06:13:10;9.60;;;6.40;;
70078;SDS011;57451;52.496;13.456;2023-06-22T06:15:37;11.95;;;6.75;;
70078;SDS011;57451;52.496;13.456;2023-06-22T06:18:05;10.07;;;6.47;;
70078;SDS011;57451;52.496;13.456;2023-06-22T06:23:28;10.93;;;5.83;;
70078;SDS011;57451;52.496;13.456;2023-06-22T06:25:55;9.88;;;5.93;;
70078;SDS011;57451;52.496;13.456;2023-06-22T06:28:24;10.10;;;5.95;;
70078;SDS011;57451;52.496;13.456;2023-06-22T06:30:52;10.80;;;6.10;;
70078;SDS011;57451;52.496;13.456;2023-06-22T06:33:19;8.35;;;5.78;;
70078;SDS011;57451;52.496;13.456;2023-06-22T06:35:50;9.00;;;5.70;;
70078;SDS011;57451;52.496;13.456;2023-06-22T06:38:19;8.32;;;5.43;;
70078;SDS011;57451;52.496;13.456;2023-06-22T06:40:47;7.85;;;5.10;;
70078;SDS011;57451;52.496;13.456;2023-06-22T06:46:14;7.10;;;4.57;;
70078;SDS011;57451;52.496;13.456;2023-06-22T06:48:42;8.10;;;4.60;;
70078;SDS011;57451;52.496;13.456;2023-06-22T06:51:09;7.18;;;4.65;;
70078;SDS011;57451;52.496;13.456;2023-06-22T06:53:38;6.68;;;4.18;;
70078;SDS011;57451;52.496;13.456;2023-06-22T06:56:06;7.38;;;4.70;;
70078;SDS011;57451;52.496;13.456;2023-06-22T06:58:37;6.82;;;4.20;;
70078;SDS011;57451;52.496;13.456;2023-06-22T07:05:38;6.93;;;4.00;;
70078;SDS011;57451;52.496;13.456;2023-06-22T07:08:05;7.88;;;3.95;;
70078;SDS011;57451;52.496;13.456;2023-06-22T07:10:34;7.28;;;4.30;;
70078;SDS011;57451;52.496;13.456;2023-06-22T07:13:07;7.03;;;4.20;;
70078;SDS011;57451;52.496;13.456;2023-06-22T07:15:35;10.57;;;4.00;;
70078;SDS011;57451;52.496;13.456;2023-06-22T07:18:02;7.30;;;4.10;;
70078;SDS011;57451;52.496;13.456;2023-06-22T07:20:30;6.32;;;3.90;;
70078;SDS011;57451;52.496;13.456;2023-06-22T07:22:58;10.40;;;3.80;;
70078;SDS011;57451;52.496;13.456;2023-06-22T07:25:26;6.05;;;3.40;;
70078;SDS011;57451;52.496;13.456;2023-06-22T07:27:58;6.53;;;3.80;;
70078;SDS011;57451;52.496;13.456;2023-06-22T07:30:28;6.60;;;3.50;;
70078;SDS011;57451;52.496;13.456;2023-06-22T07:32:56;6.45;;;3.40;;
70078;SDS011;57451;52.496;13.456;2023-06-22T07:35:25;7.60;;;3.55;;
70078;SDS011;57451;52.496;13.456;2023-06-22T07:37:52;6.32;;;3.58;;
70078;SDS011;57451;52.496;13.456;2023-06-22T07:40:22;6.97;;;3.67;;
70078;SDS011;57451;52.496;13.456;2023-06-22T07:42:49;6.70;;;3.20;;
70078;SDS011;57451;52.496;13.456;2023-06-22T07:45:19;7.28;;;3.33;;
70078;SDS011;57451;52.496;13.456;2023-06-22T07:47:47;5.38;;;3.47;;
70078;SDS011;57451;52.496;13.456;2023-06-22T07:50:15;6.00;;;3.00;;
70078;SDS011;57451;52.496;13.456;2023-06-22T07:52:43;5.90;;;3.40;;
70078;SDS011;57451;52.496;13.456;2023-06-22T07:55:11;5.20;;;2.80;;
70078;SDS011;57451;52.496;13.456;2023-06-22T07:57:39;7.05;;;3.10;;
70078;SDS011;57451;52.496;13.456;2023-06-22T08:00:08;5.45;;;2.80;;
70078;SDS011;57451;52.496;13.456;2023-06-22T08:02:57;5.38;;;2.75;;
70078;SDS011;57451;52.496;13.456;2023-06-22T08:05:25;5.28;;;3.05;;
70078;SDS011;57451;52.496;13.456;2023-06-22T08:07:54;5.18;;;2.88;;
70078;SDS011;57451;52.496;13.456;2023-06-22T08:10:22;6.63;;;2.70;;
70078;SDS011;57451;52.496;13.456;2023-06-22T08:12:50;5.85;;;2.90;;
70078;SDS011;57451;52.496;13.456;2023-06-22T08:15:19;5.63;;;3.00;;
70078;SDS011;57451;52.496;13.456;2023-06-22T08:17:46;5.65;;;2.80;;
70078;SDS011;57451;52.496;13.456;2023-06-22T08:20:15;6.05;;;3.08;;
70078;SDS011;57451;52.496;13.456;2023-06-22T08:22:42;6.72;;;3.22;;
70078;SDS011;57451;52.496;13.456;2023-06-22T08:25:10;7.97;;;3.58;;
70078;SDS011;57451;52.496;13.456;2023-06-22T08:27:38;6.38;;;3.53;;
70078;SDS011;57451;52.496;13.456;2023-06-22T08:30:06;5.22;;;3.13;;
70078;SDS011;57451;52.496;13.456;2023-06-22T08:32:34;6.05;;;3.38;;
70078;SDS011;57451;52.496;13.456;2023-06-22T08:35:02;6.88;;;3.60;;
70078;SDS011;57451;52.496;13.456;2023-06-22T08:37:31;7.43;;;4.18;;
70078;SDS011;57451;52.496;13.456;2023-06-22T08:40:02;6.25;;;3.60;;
70078;SDS011;57451;52.496;13.456;2023-06-22T08:42:39;8.43;;;4.20;;
70078;SDS011;57451;52.496;13.456;2023-06-22T08:45:07;6.57;;;3.65;;
70078;SDS011;57451;52.496;13.456;2023-06-22T08:47:36;5.75;;;3.50;;
70078;SDS011;57451;52.496;13.456;2023-06-22T08:50:04;6.72;;;3.72;;
70078;SDS011;57451;52.496;13.456;2023-06-22T08:52:33;5.78;;;3.45;;
70078;SDS011;57451;52.496;13.456;2023-06-22T08:55:01;7.10;;;3.38;;
70078;SDS011;57451;52.496;13.456;2023-06-22T08:57:29;7.32;;;3.25;;
70078;SDS011;57451;52.496;13.456;2023-06-22T08:59:57;6.18;;;3.70;;
70078;SDS011;57451;52.496;13.456;2023-06-22T09:02:26;5.53;;;3.33;;
70078;SDS011;57451;52.496;13.456;2023-06-22T09:04:57;6.35;;;3.33;;
70078;SDS011;57451;52.496;13.456;2023-06-22T09:07:25;7.03;;;3.28;;
70078;SDS011;57451;52.496;13.456;2023-06-22T09:09:57;5.53;;;3.50;;
70078;SDS011;57451;52.496;13.456;2023-06-22T09:12:26;5.32;;;3.13;;
70078;SDS011;57451;52.496;13.456;2023-06-22T09:14:54;6.53;;;4.00;;
70078;SDS011;57451;52.496;13.456;2023-06-22T09:17:21;5.30;;;3.60;;
70078;SDS011;57451;52.496;13.456;2023-06-22T09:19:49;5.47;;;3.42;;
70078;SDS011;57451;52.496;13.456;2023-06-22T09:22:16;5.18;;;3.30;;
70078;SDS011;57451;52.496;13.456;2023-06-22T09:24:43;5.60;;;3.40;;
70078;SDS011;57451;52.496;13.456;2023-06-22T09:27:12;6.50;;;3.45;;
70078;SDS011;57451;52.496;13.456;2023-06-22T09:29:40;6.10;;;3.70;;
70078;SDS011;57451;52.496;13.456;2023-06-22T09:32:07;5.97;;;3.67;;
70078;SDS011;57451;52.496;13.456;2023-06-22T09:34:35;7.32;;;4.25;;
70078;SDS011;57451;52.496;13.456;2023-06-22T09:37:03;7.70;;;3.90;;
70078;SDS011;57451;52.496;13.456;2023-06-22T09:39:30;5.53;;;3.78;;
70078;SDS011;57451;52.496;13.456;2023-06-22T09:41:58;6.95;;;3.50;;
70078;SDS011;57451;52.496;13.456;2023-06-22T09:44:28;6.18;;;3.70;;
70078;SDS011;57451;52.496;13.456;2023-06-22T09:46:55;6.50;;;3.72;;
70078;SDS011;57451;52.496;13.456;2023-06-22T09:49:23;6.60;;;3.90;;
70078;SDS011;57451;52.496;13.456;2023-06-22T09:52:11;7.03;;;4.13;;
70078;SDS011;57451;52.496;13.456;2023-06-22T09:54:38;5.75;;;3.97;;
70078;SDS011;57451;52.496;13.456;2023-06-22T09:57:06;5.43;;;3.92;;
70078;SDS011;57451;52.496;13.456;2023-06-22T09:59:35;8.20;;;3.90;;
70078;SDS011;57451;52.496;13.456;2023-06-22T10:02:02;6.43;;;4.18;;
70078;SDS011;57451;52.496;13.456;2023-06-22T10:04:30;6.43;;;4.13;;
70078;SDS011;57451;52.496;13.456;2023-06-22T10:06:58;6.32;;;4.00;;
70078;SDS011;57451;52.496;13.456;2023-06-22T10:09:25;5.50;;;3.78;;
70078;SDS011;57451;52.496;13.456;2023-06-22T10:11:53;7.93;;;3.88;;
70078;SDS011;57451;52.496;13.456;2023-06-22T10:14:20;7.20;;;4.50;;
70078;SDS011;57451;52.496;13.456;2023-06-22T10:16:50;6.28;;;4.45;;
70078;SDS011;57451;52.496;13.456;2023-06-22T10:19:19;6.60;;;4.40;;
70078;SDS011;57451;52.496;13.456;2023-06-22T10:21:46;6.25;;;4.30;;
70078;SDS011;57451;52.496;13.456;2023-06-22T10:24:14;6.10;;;4.00;;
70078;SDS011;57451;52.496;13.456;2023-06-22T10:26:41;6.78;;;4.10;;
70078;SDS011;57451;52.496;13.456;2023-06-22T10:29:09;8.60;;;4.07;;
70078;SDS011;57451;52.496;13.456;2023-06-22T10:31:43;7.82;;;4.53;;
70078;SDS011;57451;52.496;13.456;2023-06-22T10:34:12;6.68;;;4.00;;
70078;SDS011;57451;52.496;13.456;2023-06-22T10:36:39;6.90;;;3.83;;
70078;SDS011;57451;52.496;13.456;2023-06-22T10:39:07;6.45;;;3.85;;
70078;SDS011;57451;52.496;13.456;2023-06-22T10:41:34;6.05;;;3.83;;
70078;SDS011;57451;52.496;13.456;2023-06-22T10:44:02;6.28;;;3.90;;
70078;SDS011;57451;52.496;13.456;2023-06-22T10:46:29;5.53;;;3.50;;
70078;SDS011;57451;52.496;13.456;2023-06-22T10:48:57;6.72;;;3.63;;
70078;SDS011;57451;52.496;13.456;2023-06-22T10:51:26;5.78;;;3.80;;
70078;SDS011;57451;52.496;13.456;2023-06-22T10:53:55;5.70;;;3.53;;
70078;SDS011;57451;52.496;13.456;2023-06-22T10:56:22;6.55;;;4.05;;
70078;SDS011;57451;52.496;13.456;2023-06-22T10:58:50;5.32;;;3.55;;
70078;SDS011;57451;52.496;13.456;2023-06-22T11:01:17;5.63;;;3.22;;
70078;SDS011;57451;52.496;13.456;2023-06-22T11:04:02;5.15;;;3.30;;
70078;SDS011;57451;52.496;13.456;2023-06-22T11:06:31;6.85;;;3.63;;
70078;SDS011;57451;52.496;13.456;2023-06-22T11:08:59;5.75;;;3.78;;
70078;SDS011;57451;52.496;13.456;2023-06-22T11:11:29;5.70;;;3.67;;
70078;SDS011;57451;52.496;13.456;2023-06-22T11:13:57;6.20;;;3.38;;
70078;SDS011;57451;52.496;13.456;2023-06-22T11:16:24;5.53;;;3.05;;
70078;SDS011;57451;52.496;13.456;2023-06-22T11:18:52;5.70;;;3.33;;
70078;SDS011;57451;52.496;13.456;2023-06-22T11:21:19;5.35;;;3.30;;
70078;SDS011;57451;52.496;13.456;2023-06-22T11:23:48;6.22;;;3.50;;
70078;SDS011;57451;52.496;13.456;2023-06-22T11:26:17;5.13;;;3.40;;
70078;SDS011;57451;52.496;13.456;2023-06-22T11:28:45;7.60;;;3.30;;
70078;SDS011;57451;52.496;13.456;2023-06-22T11:31:13;6.43;;;3.63;;
70078;SDS011;57451;52.496;13.456;2023-06-22T11:33:52;7.93;;;3.30;;
70078;SDS011;57451;52.496;13.456;2023-06-22T11:36:20;5.43;;;3.65;;
70078;SDS011;57451;52.496;13.456;2023-06-22T11:38:49;5.70;;;3.70;;
70078;SDS011;57451;52.496;13.456;2023-06-22T11:41:16;5.70;;;4.00;;
70078;SDS011;57451;52.496;13.456;2023-06-22T11:43:44;6.20;;;3.70;;
70078;SDS011;57451;52.496;13.456;2023-06-22T11:46:12;5.53;;;3.65;;
70078;SDS011;57451;52.496;13.456;2023-06-22T11:48:39;5.10;;;3.80;;
70078;SDS011;57451;52.496;13.456;2023-06-22T11:51:07;6.25;;;3.75;;
70078;SDS011;57451;52.496;13.456;2023-06-22T11:53:35;6.43;;;3.70;;
70078;SDS011;57451;52.496;13.456;2023-06-22T11:56:04;6.22;;;4.07;;
70078;SDS011;57451;52.496;13.456;2023-06-22T11:58:33;7.00;;;4.20;;
70078;SDS011;57451;52.496;13.456;2023-06-22T12:01:00;6.13;;;3.50;;
70078;SDS011;57451;52.496;13.456;2023-06-22T12:03:28;7.80;;;3.80;;
70078;SDS011;57451;52.496;13.456;2023-06-22T12:05:56;6.68;;;3.70;;
70078;SDS011;57451;52.496;13.456;2023-06-22T12:08:23;6.22;;;3.92;;
70078;SDS011;57451;52.496;13.456;2023-06-22T12:10:51;5.65;;;4.05;;
70078;SDS011;57451;52.496;13.456;2023-06-22T12:13:22;6.13;;;3.95;;
70078;SDS011;57451;52.496;13.456;2023-06-22T12:15:49;6.30;;;4.30;;
70078;SDS011;57451;52.496;13.456;2023-06-22T12:18:19;6.57;;;4.15;;
70078;SDS011;57451;52.496;13.456;2023-06-22T12:20:48;5.30;;;3.78;;
70078;SDS011;57451;52.496;13.456;2023-06-22T12:23:15;9.05;;;4.72;;
70078;SDS011;57451;52.496;13.456;2023-06-22T12:25:44;7.00;;;4.22;;
70078;SDS011;57451;52.496;13.456;2023-06-22T12:28:11;6.10;;;4.15;;
70078;SDS011;57451;52.496;13.456;2023-06-22T12:30:40;6.75;;;4.60;;
70078;SDS011;57451;52.496;13.456;2023-06-22T12:33:08;7.45;;;4.45;;
70078;SDS011;57451;52.496;13.456;2023-06-22T12:35:36;7.88;;;4.68;;
70078;SDS011;57451;52.496;13.456;2023-06-22T12:38:03;6.90;;;4.25;;
70078;SDS011;57451;52.496;13.456;2023-06-22T12:40:33;6.68;;;4.25;;
70078;SDS011;57451;52.496;13.456;2023-06-22T12:43:00;6.35;;;4.55;;
70078;SDS011;57451;52.496;13.456;2023-06-22T12:45:29;6.35;;;4.45;;
70078;SDS011;57451;52.496;13.456;2023-06-22T12:48:01;7.00;;;4.85;;
70078;SDS011;57451;52.496;13.456;2023-06-22T12:50:29;6.93;;;5.13;;
70078;SDS011;57451;52.496;13.456;2023-06-22T12:52:57;6.47;;;4.65;;
70078;SDS011;57451;52.496;13.456;2023-06-22T12:55:25;6.10;;;4.50;;
70078;SDS011;57451;52.496;13.456;2023-06-22T12:57:55;7.43;;;5.03;;
70078;SDS011;57451;52.496;13.456;2023-06-22T13:00:23;10.35;;;4.93;;
70078;SDS011;57451;52.496;13.456;2023-06-22T13:02:50;6.88;;;4.80;;
70078;SDS011;57451;52.496;13.456;2023-06-22T13:05:21;6.50;;;4.40;;
70078;SDS011;57451;52.496;13.456;2023-06-22T13:07:49;6.07;;;4.63;;
70078;SDS011;57451;52.496;13.456;2023-06-22T13:10:17;6.88;;;4.72;;
70078;SDS011;57451;52.496;13.456;2023-06-22T13:12:45;11.32;;;5.03;;
70078;SDS011;57451;52.496;13.456;2023-06-22T13:15:12;6.88;;;5.05;;
70078;SDS011;57451;52.496;13.456;2023-06-22T13:17:40;6.30;;;4.60;;
70078;SDS011;57451;52.496;13.456;2023-06-22T13:20:08;6.35;;;4.90;;
70078;SDS011;57451;52.496;13.456;2023-06-22T13:22:37;7.20;;;5.03;;
70078;SDS011;57451;52.496;13.456;2023-06-22T13:25:10;9.32;;;5.05;;
70078;SDS011;57451;52.496;13.456;2023-06-22T13:27:39;7.10;;;4.72;;
70078;SDS011;57451;52.496;13.456;2023-06-22T13:30:07;7.10;;;4.88;;
70078;SDS011;57451;52.496;13.456;2023-06-22T13:32:40;7.13;;;5.10;;
70078;SDS011;57451;52.496;13.456;2023-06-22T13:35:11;6.22;;;4.80;;
70078;SDS011;57451;52.496;13.456;2023-06-22T13:37:40;7.93;;;5.18;;
70078;SDS011;57451;52.496;13.456;2023-06-22T13:40:08;7.50;;;4.60;;
70078;SDS011;57451;52.496;13.456;2023-06-22T13:42:36;6.20;;;4.50;;
70078;SDS011;57451;52.496;13.456;2023-06-22T13:45:03;6.38;;;4.70;;
70078;SDS011;57451;52.496;13.456;2023-06-22T13:47:32;7.45;;;5.10;;
70078;SDS011;57451;52.496;13.456;2023-06-22T13:49:59;7.10;;;4.80;;
70078;SDS011;57451;52.496;13.456;2023-06-22T13:52:27;8.15;;;5.30;;
70078;SDS011;57451;52.496;13.456;2023-06-22T13:54:56;8.10;;;5.25;;
70078;SDS011;57451;52.496;13.456;2023-06-22T13:57:23;7.90;;;4.70;;
70078;SDS011;57451;52.496;13.456;2023-06-22T13:59:50;10.10;;;4.85;;
70078;SDS011;57451;52.496;13.456;2023-06-22T14:02:18;6.50;;;4.53;;
70078;SDS011;57451;52.496;13.456;2023-06-22T14:04:46;6.45;;;4.53;;
70078;SDS011;57451;52.496;13.456;2023-06-22T14:07:13;7.97;;;4.70;;
70078;SDS011;57451;52.496;13.456;2023-06-22T14:09:41;7.28;;;4.78;;
70078;SDS011;57451;52.496;13.456;2023-06-22T14:12:10;8.82;;;5.32;;
70078;SDS011;57451;52.496;13.456;2023-06-22T14:14:38;10.15;;;5.50;;
70078;SDS011;57451;52.496;13.456;2023-06-22T14:17:06;13.95;;;5.38;;
70078;SDS011;57451;52.496;13.456;2023-06-22T14:19:33;8.50;;;4.45;;
70078;SDS011;57451;52.496;13.456;2023-06-22T14:22:01;7.93;;;4.50;;
70078;SDS011;57451;52.496;13.456;2023-06-22T14:24:28;9.90;;;4.97;;
70078;SDS011;57451;52.496;13.456;2023-06-22T14:26:57;11.23;;;5.80;;
70078;SDS011;57451;52.496;13.456;2023-06-22T14:29:26;11.55;;;6.00;;
70078;SDS011;57451;52.496;13.456;2023-06-22T14:31:53;10.65;;;5.40;;
70078;SDS011;57451;52.496;13.456;2023-06-22T14:34:21;9.38;;;5.07;;
70078;SDS011;57451;52.496;13.456;2023-06-22T14:36:48;7.30;;;5.18;;
70078;SDS011;57451;52.496;13.456;2023-06-22T14:39:16;11.65;;;5.97;;
70078;SDS011;57451;52.496;13.456;2023-06-22T14:41:43;9.77;;;5.40;;
70078;SDS011;57451;52.496;13.456;2023-06-22T14:44:11;7.82;;;4.80;;
70078;SDS011;57451;52.496;13.456;2023-06-22T14:46:39;16.30;;;6.50;;
70078;SDS011;57451;52.496;13.456;2023-06-22T14:49:07;12.20;;;6.03;;
70078;SDS011;57451;52.496;13.456;2023-06-22T14:51:34;6.97;;;4.80;;
70078;SDS011;57451;52.496;13.456;2023-06-22T14:54:02;7.78;;;4.90;;
70078;SDS011;57451;52.496;13.456;2023-06-22T14:56:29;9.90;;;5.47;;
70078;SDS011;57451;52.496;13.456;2023-06-22T14:58:58;6.75;;;4.65;;
70078;SDS011;57451;52.496;13.456;2023-06-22T15:01:26;7.30;;;4.80;;
70078;SDS011;57451;52.496;13.456;2023-06-22T15:03:55;6.38;;;4.60;;
70078;SDS011;57451;52.496;13.456;2023-06-22T15:06:22;7.75;;;4.90;;
70078;SDS011;57451;52.496;13.456;2023-06-22T15:08:50;13.48;;;6.55;;
70078;SDS011;57451;52.496;13.456;2023-06-22T15:11:17;15.60;;;7.20;;
70078;SDS011;57451;52.496;13.456;2023-06-22T15:13:45;10.95;;;5.63;;
70078;SDS011;57451;52.496;13.456;2023-06-22T15:16:12;8.38;;;5.20;;
70078;SDS011;57451;52.496;13.456;2023-06-22T15:18:40;6.95;;;4.88;;
70078;SDS011;57451;52.496;13.456;2023-06-22T15:21:09;7.88;;;5.10;;
70078;SDS011;57451;52.496;13.456;2023-06-22T15:23:36;6.97;;;5.10;;
70078;SDS011;57451;52.496;13.456;2023-06-22T15:26:04;9.00;;;5.32;;
70078;SDS011;57451;52.496;13.456;2023-06-22T15:28:34;13.52;;;6.10;;
70078;SDS011;57451;52.496;13.456;2023-06-22T15:31:05;14.70;;;6.80;;
70078;SDS011;57451;52.496;13.456;2023-06-22T15:33:33;8.40;;;5.00;;
70078;SDS011;57451;52.496;13.456;2023-06-22T15:36:00;21.10;;;7.05;;
70078;SDS011;57451;52.496;13.456;2023-06-22T15:38:32;7.95;;;5.72;;
70078;SDS011;57451;52.496;13.456;2023-06-22T15:41:00;10.10;;;5.95;;
70078;SDS011;57451;52.496;13.456;2023-06-22T15:43:28;9.35;;;5.80;;
70078;SDS011;57451;52.496;13.456;2023-06-22T15:45:55;7.20;;;5.13;;
70078;SDS011;57451;52.496;13.456;2023-06-22T15:48:23;8.05;;;5.40;;
70078;SDS011;57451;52.496;13.456;2023-06-22T15:50:50;8.38;;;5.30;;
70078;SDS011;57451;52.496;13.456;2023-06-22T15:53:18;7.30;;;5.50;;
70078;SDS011;57451;52.496;13.456;2023-06-22T15:55:46;8.45;;;5.32;;
70078;SDS011;57451;52.496;13.456;2023-06-22T15:58:14;6.90;;;5.00;;
70078;SDS011;57451;52.496;13.456;2023-06-22T16:00:43;6.15;;;5.22;;
70078;SDS011;57451;52.496;13.456;2023-06-22T16:03:12;7.20;;;5.20;;
70078;SDS011;57451;52.496;13.456;2023-06-22T16:05:41;8.18;;;5.75;;
70078;SDS011;57451;52.496;13.456;2023-06-22T16:08:09;7.43;;;5.40;;
70078;SDS011;57451;52.496;13.456;2023-06-22T16:10:40;9.00;;;5.70;;
70078;SDS011;57451;52.496;13.456;2023-06-22T16:13:09;8.30;;;5.30;;
70078;SDS011;57451;52.496;13.456;2023-06-22T16:15:36;9.07;;;5.38;;
70078;SDS011;57451;52.496;13.456;2023-06-22T16:18:03;6.93;;;5.20;;
70078;SDS011;57451;52.496;13.456;2023-06-22T16:20:31;6.32;;;5.18;;
70078;SDS011;57451;52.496;13.456;2023-06-22T16:22:59;7.13;;;5.07;;
70078;SDS011;57451;52.496;13.456;2023-06-22T16:25:27;7.68;;;5.40;;
70078;SDS011;57451;52.496;13.456;2023-06-22T16:27:54;7.15;;;5.35;;
70078;SDS011;57451;52.496;13.456;2023-06-22T16:30:23;7.75;;;5.32;;
70078;SDS011;57451;52.496;13.456;2023-06-22T16:32:51;9.48;;;5.25;;
70078;SDS011;57451;52.496;13.456;2023-06-22T16:35:20;6.93;;;5.80;;
70078;SDS011;57451;52.496;13.456;2023-06-22T16:37:48;6.82;;;5.55;;
70078;SDS011;57451;52.496;13.456;2023-06-22T16:40:15;6.93;;;5.60;;
70078;SDS011;57451;52.496;13.456;2023-06-22T16:42:47;8.32;;;5.65;;